Time;durP1;ratioP1;P1;durP2;ratioP2;P2;SDS_P1;SDS_P2;PMS_P1;PMS_P2;Temp;Humidity;BMP_temperature;BMP_pressure;BME280_temperature;BME280_humidity;BME280_pressure;Samples;Min_cycle;Max_cycle;Signal;HPM_P1;HPM_P2
2023/08/21 00:01:44;;;;;;;14.40;11.70;;;26.40;52.30;;;;;;5003681;28;115038;-78
2023/08/21 00:04:12;;;;;;;13.05;10.70;;;26.40;52.50;;;;;;5002330;28;114250;-79
2023/08/21 00:06:39;;;;;;;12.00;10.90;;;26.40;52.30;;;;;;5002858;28;114848;-79
2023/08/21 00:09:06;;;;;;;16.95;12.02;;;26.30;52.30;;;;;;5003463;28;113968;-79
2023/08/21 00:11:33;;;;;;;12.15;10.95;;;26.40;52.30;;;;;;5002933;28;115222;-78
2023/08/21 00:14:00;;;;;;;12.25;10.82;;;26.30;52.50;;;;;;5004096;28;114033;-79
2023/08/21 00:16:28;;;;;;;13.35;10.75;;;26.30;52.40;;;;;;5002545;28;114228;-79
2023/08/21 00:18:56;;;;;;;13.20;11.75;;;26.30;52.60;;;;;;5001746;28;116157;-78
2023/08/21 00:21:23;;;;;;;12.82;11.52;;;26.30;52.20;;;;;;5003293;28;115200;-79
2023/08/21 00:23:50;;;;;;;13.50;12.15;;;26.30;52.30;;;;;;5003615;28;114141;-78
2023/08/21 00:26:17;;;;;;;14.40;12.00;;;26.30;52.10;;;;;;5002719;28;114409;-78
2023/08/21 00:28:44;;;;;;;14.02;12.13;;;26.30;52.20;;;;;;5001469;28;115232;-79
2023/08/21 00:31:11;;;;;;;14.27;11.75;;;26.30;52.40;;;;;;5002806;28;114583;-78
2023/08/21 00:33:38;;;;;;;12.50;11.20;;;26.30;52.40;;;;;;5002251;28;114379;-79
2023/08/21 00:36:05;;;;;;;12.80;11.45;;;26.30;52.50;;;;;;5002524;28;114344;-79
2023/08/21 00:38:32;;;;;;;13.80;12.40;;;26.40;52.30;;;;;;4984965;28;117966;-79
2023/08/21 00:41:00;;;;;;;13.98;12.50;;;26.30;52.00;;;;;;5002341;28;114711;-78
2023/08/21 00:43:27;;;;;;;15.27;12.00;;;26.30;52.10;;;;;;5003496;28;114345;-79
2023/08/21 00:45:54;;;;;;;13.18;11.75;;;26.30;51.90;;;;;;5003647;28;114441;-78
2023/08/21 00:48:21;;;;;;;12.45;11.27;;;26.30;52.30;;;;;;5001591;28;115630;-80
2023/08/21 00:50:48;;;;;;;12.82;11.55;;;26.30;52.40;;;;;;5001513;28;114503;-79
2023/08/21 00:53:16;;;;;;;13.05;11.77;;;26.30;52.30;;;;;;5001820;28;114498;-79
2023/08/21 00:55:43;;;;;;;13.93;11.20;;;26.30;52.30;;;;;;5001961;28;114483;-79
2023/08/21 00:58:13;;;;;;;12.38;11.18;;;26.30;52.30;;;;;;5001261;28;115523;-79
2023/08/21 01:00:43;;;;;;;14.32;12.82;;;26.30;52.30;;;;;;5001449;28;114787;-79
2023/08/21 01:03:10;;;;;;;13.50;12.20;;;26.30;51.80;;;;;;4969351;28;114592;-79
2023/08/21 01:05:37;;;;;;;14.35;12.57;;;26.30;52.00;;;;;;4985654;28;114308;-79
2023/08/21 01:08:41;;;;;;;12.50;11.20;;;26.30;51.80;;;;;;5001340;28;115241;-79
2023/08/21 01:11:12;;;;;;;13.15;11.77;;;26.30;51.80;;;;;;4987235;28;114817;-78
2023/08/21 01:13:58;;;;;;;15.80;11.73;;;26.20;52.20;;;;;;4968866;28;114281;-79
2023/08/21 01:16:25;;;;;;;12.85;11.50;;;26.30;52.00;;;;;;5002894;28;114218;-78
2023/08/21 01:18:54;;;;;;;15.20;13.30;;;26.30;52.40;;;;;;5000572;28;115038;-79
2023/08/21 01:21:22;;;;;;;13.00;11.70;;;26.30;51.90;;;;;;4968821;28;114571;-78
2023/08/21 01:23:49;;;;;;;14.35;12.30;;;26.30;52.30;;;;;;4969301;28;114147;-79
2023/08/21 01:26:16;;;;;;;16.85;13.18;;;26.30;52.00;;;;;;5001859;28;114284;-78
2023/08/21 01:28:43;;;;;;;14.13;12.60;;;26.20;51.70;;;;;;5000612;28;117226;-78
2023/08/21 01:31:19;;;;;;;14.63;12.32;;;26.20;52.10;;;;;;4984314;28;114745;-78
2023/08/21 01:33:51;;;;;;;14.43;12.63;;;26.20;52.10;;;;;;5001342;28;114469;-79
2023/08/21 01:36:18;;;;;;;13.63;11.93;;;26.20;52.30;;;;;;5003087;28;114113;-79
2023/08/21 01:38:45;;;;;;;14.57;11.88;;;26.20;52.30;;;;;;4984688;28;115435;-79
2023/08/21 01:41:13;;;;;;;14.20;12.70;;;26.20;52.40;;;;;;4983786;28;114930;-79
2023/08/21 01:43:40;;;;;;;13.35;11.77;;;26.20;52.10;;;;;;4984544;28;114100;-79
2023/08/21 01:46:08;;;;;;;12.77;11.35;;;26.20;52.40;;;;;;5006069;28;114127;-79
2023/08/21 01:48:35;;;;;;;16.83;13.48;;;26.20;52.40;;;;;;5003761;28;116343;-79
2023/08/21 01:51:02;;;;;;;16.02;13.73;;;26.20;51.90;;;;;;5005016;28;114728;-79
2023/08/21 01:53:29;;;;;;;13.00;11.48;;;26.20;51.70;;;;;;4988214;28;114410;-78
2023/08/21 01:55:56;;;;;;;12.90;11.68;;;26.20;52.20;;;;;;5004358;28;114446;-79
2023/08/21 01:58:23;;;;;;;14.40;12.23;;;26.10;52.30;;;;;;5003915;28;115003;-78
2023/08/21 02:00:51;;;;;;;13.90;12.43;;;26.20;52.30;;;;;;5004166;28;114709;-79
2023/08/21 02:03:18;;;;;;;13.80;11.80;;;26.20;52.00;;;;;;5005948;28;114183;-79
2023/08/21 02:05:45;;;;;;;14.75;13.00;;;26.10;52.20;;;;;;5004478;28;114442;-78
2023/08/21 02:08:13;;;;;;;16.05;13.50;;;26.10;52.30;;;;;;5004396;28;115076;-79
2023/08/21 02:10:50;;;;;;;15.40;11.90;;;26.10;52.00;;;;;;5006101;28;114824;-79
2023/08/21 02:13:17;;;;;;;14.77;13.23;;;26.20;52.30;;;;;;5006673;28;114014;-78
2023/08/21 02:15:45;;;;;;;13.43;11.95;;;26.10;52.00;;;;;;5004573;28;114376;-78
2023/08/21 02:18:12;;;;;;;13.93;12.50;;;26.10;52.10;;;;;;4986965;28;116929;-78
2023/08/21 02:20:39;;;;;;;12.23;10.75;;;26.10;52.00;;;;;;4986781;28;118503;-79
2023/08/21 02:23:06;;;;;;;17.73;13.68;;;26.10;52.40;;;;;;5008895;28;114335;-78
2023/08/21 02:25:33;;;;;;;15.82;13.80;;;26.10;51.80;;;;;;5007726;28;114136;-79
2023/08/21 02:28:01;;;;;;;15.00;12.25;;;26.10;52.00;;;;;;5004988;28;114891;-79
2023/08/21 02:30:28;;;;;;;17.08;14.30;;;26.00;52.20;;;;;;5005077;28;114707;-79
2023/08/21 02:32:56;;;;;;;14.80;12.52;;;26.10;51.70;;;;;;5005383;28;113946;-79
2023/08/21 02:35:23;;;;;;;14.00;12.45;;;26.00;52.30;;;;;;5005762;28;114191;-79
2023/08/21 02:37:50;;;;;;;16.35;13.77;;;26.10;52.30;;;;;;5004636;28;114186;-79
2023/08/21 02:40:17;;;;;;;14.88;13.38;;;26.00;51.60;;;;;;5004704;28;114572;-78
2023/08/21 02:42:45;;;;;;;16.42;14.68;;;26.00;52.00;;;;;;5004038;28;115120;-79
2023/08/21 02:45:12;;;;;;;15.10;13.38;;;26.00;51.60;;;;;;4987358;28;114373;-79
2023/08/21 02:47:40;;;;;;;13.48;11.85;;;26.00;51.70;;;;;;5004137;28;116178;-79
2023/08/21 02:50:08;;;;;;;13.70;12.27;;;26.00;52.10;;;;;;4986701;28;114572;-78
2023/08/21 02:52:35;;;;;;;14.18;12.45;;;26.00;52.00;;;;;;4970923;28;114439;-79
2023/08/21 02:55:03;;;;;;;15.95;13.43;;;25.90;52.20;;;;;;5004348;28;114151;-79
2023/08/21 02:57:30;;;;;;;16.50;13.45;;;25.90;51.50;;;;;;4985685;28;115268;-79
2023/08/21 02:59:57;;;;;;;16.30;13.15;;;25.90;52.20;;;;;;5004342;28;115035;-79
2023/08/21 03:02:25;;;;;;;16.52;12.75;;;25.90;52.10;;;;;;5005188;28;114074;-78
2023/08/21 03:04:52;;;;;;;14.13;12.65;;;25.90;52.30;;;;;;4987426;28;114349;-77
2023/08/21 03:07:19;;;;;;;12.90;11.45;;;25.90;52.30;;;;;;5003167;28;114840;-78
2023/08/21 03:09:47;;;;;;;14.13;12.18;;;25.90;52.30;;;;;;5004525;28;114572;-78
2023/08/21 03:12:14;;;;;;;14.23;12.85;;;25.90;52.40;;;;;;4987537;28;114198;-79
2023/08/21 03:14:41;;;;;;;17.83;12.95;;;25.80;52.00;;;;;;5004056;28;114115;-78
2023/08/21 03:17:08;;;;;;;14.73;12.55;;;25.80;52.20;;;;;;4986665;28;114953;-79
2023/08/21 03:19:35;;;;;;;13.82;12.38;;;25.80;52.50;;;;;;5003383;28;114624;-79
2023/08/21 03:22:03;;;;;;;12.40;11.20;;;25.80;52.20;;;;;;4970510;28;114251;-78
2023/08/21 03:24:31;;;;;;;14.18;12.70;;;25.80;52.40;;;;;;5004226;28;114135;-78
2023/08/21 03:26:58;;;;;;;13.90;12.18;;;25.80;52.10;;;;;;5002590;28;116185;-79
2023/08/21 03:29:25;;;;;;;15.50;12.82;;;25.80;52.40;;;;;;5004055;28;114650;-79
2023/08/21 03:31:53;;;;;;;14.25;12.85;;;25.70;52.00;;;;;;4987099;28;114345;-79
2023/08/21 03:34:20;;;;;;;13.35;12.05;;;25.70;51.70;;;;;;4986801;28;114316;-79
2023/08/21 03:36:49;;;;;;;13.55;12.10;;;25.60;52.10;;;;;;4986744;28;114879;-79
2023/08/21 03:39:17;;;;;;;13.85;12.48;;;25.60;52.30;;;;;;4986900;28;115095;-78
2023/08/21 03:41:46;;;;;;;13.02;11.55;;;25.60;52.60;;;;;;5003013;28;114365;-79
2023/08/21 03:44:15;;;;;;;14.18;12.52;;;25.50;52.20;;;;;;5003135;28;114350;-78
2023/08/21 03:46:42;;;;;;;13.98;12.15;;;25.50;52.40;;;;;;5001297;28;115131;-79
2023/08/21 03:49:09;;;;;;;14.55;12.73;;;25.50;53.00;;;;;;5002752;28;114617;-78
2023/08/21 03:51:36;;;;;;;13.68;12.07;;;25.50;52.70;;;;;;5003360;28;114145;-78
2023/08/21 03:54:04;;;;;;;12.82;11.60;;;25.60;53.00;;;;;;5003702;28;114353;-78
2023/08/21 03:56:31;;;;;;;14.20;12.13;;;25.60;52.70;;;;;;5002262;28;114851;-79
2023/08/21 03:58:59;;;;;;;12.45;11.15;;;25.70;52.30;;;;;;4985932;28;114711;-78
2023/08/21 04:01:26;;;;;;;14.43;13.00;;;25.80;52.60;;;;;;5003216;28;114105;-78
2023/08/21 04:03:53;;;;;;;12.82;11.48;;;25.80;51.80;;;;;;5003543;28;114458;-78
2023/08/21 04:06:21;;;;;;;13.63;12.23;;;25.80;52.40;;;;;;4985380;28;115062;-79
2023/08/21 04:08:48;;;;;;;13.93;12.52;;;25.80;51.80;;;;;;5003080;28;114718;-79
2023/08/21 04:11:16;;;;;;;14.43;12.35;;;25.90;52.20;;;;;;4985690;28;114225;-79
2023/08/21 04:13:43;;;;;;;13.02;11.73;;;25.90;51.90;;;;;;5002696;28;114387;-78
2023/08/21 04:16:11;;;;;;;13.07;11.68;;;26.00;51.70;;;;;;5003438;28;115041;-79
2023/08/21 04:18:40;;;;;;;14.77;13.38;;;26.10;51.80;;;;;;5002154;28;114781;-79
2023/08/21 04:21:09;;;;;;;12.63;11.43;;;26.10;51.30;;;;;;5003909;28;114300;-79
2023/08/21 04:23:36;;;;;;;13.15;11.43;;;26.10;51.70;;;;;;5003823;28;114292;-79
2023/08/21 04:26:04;;;;;;;13.35;11.95;;;26.20;51.10;;;;;;5001768;28;114861;-78
2023/08/21 04:28:31;;;;;;;14.18;12.73;;;26.20;51.30;;;;;;5003328;28;115293;-79
2023/08/21 04:30:59;;;;;;;12.15;10.95;;;26.30;50.60;;;;;;5002828;28;114229;-78
2023/08/21 04:33:28;;;;;;;14.30;12.18;;;26.30;51.10;;;;;;5002637;28;114434;-77
2023/08/21 04:35:55;;;;;;;15.13;13.30;;;26.30;50.80;;;;;;4985058;28;114374;-78
2023/08/21 04:38:22;;;;;;;12.98;11.77;;;26.30;50.10;;;;;;4952595;28;116814;-79
2023/08/21 04:40:50;;;;;;;13.38;12.07;;;26.30;50.30;;;;;;4952809;28;114279;-79
2023/08/21 04:43:18;;;;;;;12.35;11.23;;;26.30;51.00;;;;;;4986314;28;114357;-79
2023/08/21 04:45:54;;;;;;;13.25;11.88;;;26.10;51.20;;;;;;5001951;28;115021;-79
2023/08/21 04:48:23;;;;;;;13.00;11.55;;;26.20;50.50;;;;;;4986417;28;114705;-78
2023/08/21 04:50:51;;;;;;;14.40;11.52;;;26.10;50.90;;;;;;4985626;28;114237;-79
2023/08/21 04:53:18;;;;;;;12.52;11.32;;;26.20;51.20;;;;;;5003070;28;114171;-79
2023/08/21 04:55:45;;;;;;;13.68;12.48;;;26.00;51.10;;;;;;5004822;28;114911;-78
2023/08/21 04:58:14;;;;;;;13.60;12.20;;;26.00;51.10;;;;;;4992581;28;115277;-79
2023/08/21 05:00:42;;;;;;;12.32;11.10;;;26.00;51.20;;;;;;4973504;28;114207;-79
2023/08/21 05:03:10;;;;;;;13.32;12.02;;;26.00;51.50;;;;;;4986902;28;114719;-79
2023/08/21 05:05:38;;;;;;;13.18;11.65;;;26.00;51.00;;;;;;5001583;28;115273;-79
2023/08/21 05:08:06;;;;;;;11.98;10.77;;;26.00;50.80;;;;;;5002476;28;114565;-79
2023/08/21 05:10:33;;;;;;;12.63;11.43;;;26.00;51.50;;;;;;5003123;28;114389;-78
2023/08/21 05:13:00;;;;;;;13.05;11.90;;;26.00;51.50;;;;;;5004218;28;114340;-79
2023/08/21 05:15:28;;;;;;;12.38;11.18;;;26.10;51.00;;;;;;5002104;28;114899;-79
2023/08/21 05:17:55;;;;;;;12.00;10.90;;;26.10;51.40;;;;;;4985823;28;114796;-78
2023/08/21 05:20:23;;;;;;;15.48;13.82;;;26.20;51.40;;;;;;5005806;28;114115;-79
2023/08/21 05:22:50;;;;;;;17.67;13.02;;;26.20;50.80;;;;;;4973429;28;114265;-78
2023/08/21 05:25:18;;;;;;;13.05;11.75;;;26.30;50.70;;;;;;5004240;28;114983;-79
2023/08/21 05:27:46;;;;;;;18.92;14.32;;;26.30;51.00;;;;;;5006080;28;114666;-79
2023/08/21 05:30:13;;;;;;;15.90;13.20;;;26.40;50.40;;;;;;5005697;28;114175;-79
2023/08/21 05:32:40;;;;;;;14.93;13.20;;;26.50;50.20;;;;;;4989089;28;114265;-80
2023/08/21 05:35:08;;;;;;;17.90;14.18;;;26.50;50.20;;;;;;5004691;28;114848;-81
2023/08/21 05:37:36;;;;;;;21.35;14.20;;;26.60;50.00;;;;;;5004941;28;114855;-79
2023/08/21 05:40:03;;;;;;;13.60;12.18;;;26.70;49.70;;;;;;4988495;28;114082;-78
2023/08/21 05:42:30;;;;;;;16.55;13.52;;;26.80;49.70;;;;;;5007046;28;114046;-79
2023/08/21 05:44:58;;;;;;;13.68;12.23;;;26.90;49.40;;;;;;4987785;28;115799;-80
2023/08/21 05:47:27;;;;;;;16.05;12.88;;;27.00;49.20;;;;;;5004388;28;115992;-80
2023/08/21 05:49:54;;;;;;;15.43;12.63;;;27.10;48.90;;;;;;5006449;28;114397;-80
2023/08/21 05:52:22;;;;;;;15.43;13.55;;;27.30;48.80;;;;;;5005015;28;114320;-79
2023/08/21 05:54:49;;;;;;;21.48;13.80;;;27.40;48.30;;;;;;5005724;28;114877;-79
2023/08/21 05:57:16;;;;;;;21.10;15.75;;;27.50;48.30;;;;;;5004234;28;114808;-79
2023/08/21 05:59:44;;;;;;;19.90;16.23;;;27.70;48.10;;;;;;4988916;28;114434;-79
2023/08/21 06:02:12;;;;;;;21.75;17.35;;;27.80;47.90;;;;;;4972776;28;114248;-79
2023/08/21 06:04:43;;;;;;;22.88;17.38;;;27.80;47.50;;;;;;5004281;28;115764;-79
2023/08/21 06:07:10;;;;;;;26.15;16.90;;;27.90;47.60;;;;;;5004486;28;114609;-79
2023/08/21 06:09:37;;;;;;;20.85;16.67;;;27.90;47.50;;;;;;4988081;28;114153;-79
2023/08/21 06:12:08;;;;;;;19.35;15.40;;;28.10;47.50;;;;;;5006107;28;114243;-79
2023/08/21 06:14:37;;;;;;;20.02;15.10;;;28.20;47.10;;;;;;5003227;28;115136;-80
2023/08/21 06:17:07;;;;;;;21.75;14.93;;;28.20;47.00;;;;;;5003899;28;115649;-79
2023/08/21 06:19:35;;;;;;;19.00;14.23;;;28.20;47.10;;;;;;4972624;28;114481;-79
2023/08/21 06:22:02;;;;;;;18.60;15.00;;;28.20;47.40;;;;;;4971690;28;114288;-79
2023/08/21 06:24:29;;;;;;;20.45;14.40;;;28.20;47.70;;;;;;4970521;28;116170;-80
2023/08/21 06:27:01;;;;;;;23.70;14.93;;;28.20;47.50;;;;;;5003943;28;114852;-81
2023/08/21 06:29:28;;;;;;;23.48;14.45;;;28.30;47.50;;;;;;5004484;28;114103;-80
2023/08/21 06:31:56;;;;;;;20.35;14.27;;;28.40;47.50;;;;;;4988315;28;114589;-79
2023/08/21 06:34:24;;;;;;;20.17;15.52;;;28.60;47.00;;;;;;5003692;28;115187;-79
2023/08/21 06:36:51;;;;;;;19.58;14.75;;;28.70;46.90;;;;;;4987396;28;114656;-78
2023/08/21 06:39:18;;;;;;;17.42;13.43;;;28.80;46.90;;;;;;4987613;28;114518;-78
2023/08/21 06:41:45;;;;;;;22.63;14.48;;;28.90;46.50;;;;;;5004284;28;114445;-79
2023/08/21 06:44:18;;;;;;;22.45;13.75;;;29.00;46.20;;;;;;5004417;28;114990;-79
2023/08/21 06:46:45;;;;;;;20.13;13.90;;;29.10;46.70;;;;;;5004495;28;114983;-79
2023/08/21 06:49:12;;;;;;;20.27;13.98;;;29.30;46.10;;;;;;4988011;28;114263;-78
2023/08/21 06:51:39;;;;;;;22.77;15.00;;;29.30;46.00;;;;;;5004624;28;114105;-80
2023/08/21 06:54:06;;;;;;;18.63;13.80;;;29.40;46.40;;;;;;5004599;28;116518;-79
2023/08/21 06:56:33;;;;;;;21.10;13.98;;;29.50;46.20;;;;;;5005038;28;114582;-79
2023/08/21 06:59:00;;;;;;;17.35;14.43;;;29.60;45.90;;;;;;5004551;28;114455;-79
2023/08/21 07:01:27;;;;;;;24.20;16.55;;;29.60;45.90;;;;;;5004422;28;114126;-79
2023/08/21 07:03:54;;;;;;;24.35;14.63;;;29.60;45.40;;;;;;4999051;28;115286;-79
2023/08/21 07:06:22;;;;;;;14.15;12.65;;;29.70;45.20;;;;;;4998095;28;114635;-78
2023/08/21 07:08:49;;;;;;;15.60;12.52;;;29.70;45.30;;;;;;4984424;28;114142;-79
2023/08/21 07:11:17;;;;;;;16.48;12.43;;;29.80;45.50;;;;;;4984485;28;114311;-79
2023/08/21 07:13:44;;;;;;;16.38;11.80;;;29.80;45.90;;;;;;4983879;28;114812;-79
2023/08/21 07:16:11;;;;;;;13.50;12.07;;;29.80;45.50;;;;;;4983659;28;114627;-79
2023/08/21 07:18:38;;;;;;;13.15;11.68;;;29.80;45.60;;;;;;4984804;28;114488;-79
2023/08/21 07:21:05;;;;;;;16.80;11.55;;;29.80;45.90;;;;;;5001708;28;114394;-79
2023/08/21 07:23:52;;;;;;;13.30;10.63;;;29.70;46.40;;;;;;5003086;28;115166;-78
2023/08/21 07:26:19;;;;;;;13.13;11.50;;;29.80;46.80;;;;;;5002889;28;114563;-78
2023/08/21 07:28:46;;;;;;;13.05;11.75;;;29.80;46.90;;;;;;5004343;28;114203;-79
2023/08/21 07:31:14;;;;;;;11.98;10.73;;;29.90;47.00;;;;;;5004942;28;114244;-77
2023/08/21 07:33:41;;;;;;;12.55;11.32;;;29.90;46.70;;;;;;4999516;28;114848;-77
2023/08/21 07:36:08;;;;;;;14.55;11.38;;;29.90;46.80;;;;;;4982850;28;114521;-78
2023/08/21 07:38:35;;;;;;;14.48;11.15;;;29.80;47.00;;;;;;4995799;28;114616;-77
2023/08/21 07:41:07;;;;;;;12.75;11.55;;;29.70;46.90;;;;;;4985505;28;114568;-78
2023/08/21 07:43:34;;;;;;;12.23;10.73;;;29.80;46.80;;;;;;4991994;28;115378;-78
2023/08/21 07:46:05;;;;;;;13.05;11.25;;;29.80;47.00;;;;;;4995908;28;114579;-78
2023/08/21 07:48:32;;;;;;;12.70;11.52;;;29.80;46.70;;;;;;4998780;28;114268;-78
2023/08/21 07:50:59;;;;;;;14.40;12.70;;;29.80;47.30;;;;;;4984482;28;114401;-78
2023/08/21 07:53:26;;;;;;;13.80;12.40;;;29.90;47.10;;;;;;4983602;28;114956;-78
2023/08/21 07:55:53;;;;;;;16.33;12.68;;;29.90;47.20;;;;;;4983771;28;114579;-78
2023/08/21 07:58:21;;;;;;;15.77;12.60;;;29.90;47.00;;;;;;4983602;28;114188;-79
2023/08/21 08:00:51;;;;;;;16.45;12.50;;;29.90;46.60;;;;;;4990539;28;114511;-78
2023/08/21 08:03:18;;;;;;;16.83;13.40;;;29.90;47.00;;;;;;4985741;28;117747;-79
2023/08/21 08:05:46;;;;;;;15.77;13.18;;;29.90;47.40;;;;;;5003261;28;114617;-78
2023/08/21 08:08:21;;;;;;;15.45;12.30;;;29.90;46.60;;;;;;5004062;28;114199;-79
2023/08/21 08:10:50;;;;;;;14.60;13.07;;;29.90;46.60;;;;;;5004808;28;114016;-79
2023/08/21 08:13:17;;;;;;;14.88;12.20;;;30.10;46.50;;;;;;5001028;28;114951;-81
2023/08/21 08:15:45;;;;;;;16.58;13.70;;;30.20;46.70;;;;;;5001089;28;114675;-80
2023/08/21 08:18:13;;;;;;;15.75;14.15;;;30.30;46.30;;;;;;5003606;28;114127;-80
2023/08/21 08:20:43;;;;;;;16.55;14.30;;;30.30;46.20;;;;;;5002903;28;114297;-79
2023/08/21 08:23:12;;;;;;;15.90;14.25;;;30.30;45.90;;;;;;5002038;28;115273;-79
2023/08/21 08:25:39;;;;;;;16.52;13.95;;;30.30;45.80;;;;;;5002638;28;116959;-78
2023/08/21 08:28:07;;;;;;;17.30;14.13;;;30.30;45.40;;;;;;5002678;28;114608;-80
2023/08/21 08:30:34;;;;;;;16.63;14.13;;;30.40;45.30;;;;;;4991660;28;114340;-79
2023/08/21 08:33:01;;;;;;;17.13;13.25;;;30.40;45.20;;;;;;4981472;28;115560;-80
2023/08/21 08:35:31;;;;;;;16.08;13.07;;;30.40;44.90;;;;;;4997654;28;114630;-79
2023/08/21 08:38:02;;;;;;;15.35;13.85;;;30.50;44.90;;;;;;5003471;28;114013;-80
2023/08/21 08:40:29;;;;;;;15.63;13.23;;;30.50;44.70;;;;;;5002147;28;114110;-79
2023/08/21 08:42:56;;;;;;;14.45;12.95;;;30.50;44.40;;;;;;5002497;28;115208;-79
2023/08/21 08:45:30;;;;;;;15.88;12.73;;;30.60;44.70;;;;;;5001753;28;115044;-80
2023/08/21 08:48:01;;;;;;;16.65;12.88;;;30.60;44.60;;;;;;5002249;28;114351;-80
2023/08/21 08:50:32;;;;;;;15.00;13.23;;;30.60;44.60;;;;;;5000571;28;114265;-80
2023/08/21 08:53:00;;;;;;;15.48;12.60;;;30.60;44.50;;;;;;4981199;28;115677;-79
2023/08/21 08:55:41;;;;;;;14.15;12.65;;;30.70;44.60;;;;;;5002680;28;114722;-79
2023/08/21 08:58:09;;;;;;;14.45;12.70;;;30.70;44.70;;;;;;4994439;28;114799;-80
2023/08/21 09:00:36;;;;;;;17.33;13.18;;;30.70;44.70;;;;;;5002983;28;114559;-80
2023/08/21 09:03:04;;;;;;;14.95;13.15;;;30.80;44.50;;;;;;5000059;28;114848;-81
2023/08/21 09:05:33;;;;;;;17.38;13.70;;;30.80;44.30;;;;;;4967259;28;116485;-80
2023/08/21 09:08:10;;;;;;;14.13;12.07;;;30.80;44.50;;;;;;4984941;28;114281;-80
2023/08/21 09:10:38;;;;;;;13.35;12.05;;;30.80;44.70;;;;;;4995425;28;114176;-78
2023/08/21 09:13:16;;;;;;;13.90;11.88;;;30.80;44.50;;;;;;4994808;28;115160;-80
2023/08/21 09:15:46;;;;;;;13.80;12.38;;;30.80;44.60;;;;;;4988228;28;114696;-79
2023/08/21 09:18:15;;;;;;;13.82;12.18;;;30.90;44.30;;;;;;4994224;28;115289;-81
2023/08/21 09:20:42;;;;;;;14.95;12.82;;;30.90;43.70;;;;;;4969095;28;114294;-80
2023/08/21 09:23:14;;;;;;;14.10;12.70;;;31.00;43.30;;;;;;4985601;28;114911;-79
2023/08/21 09:25:41;;;;;;;13.85;12.35;;;31.00;43.80;;;;;;4989998;28;114591;-79
2023/08/21 09:28:08;;;;;;;13.98;12.30;;;31.00;43.70;;;;;;4994475;28;114476;-80
2023/08/21 09:30:49;;;;;;;14.85;13.40;;;31.00;44.00;;;;;;5002208;28;115397;-79
2023/08/21 09:33:18;;;;;;;14.35;12.88;;;31.10;43.90;;;;;;4995412;28;115686;-79
2023/08/21 09:35:45;;;;;;;14.13;12.70;;;31.00;43.30;;;;;;5003758;28;115127;-78
2023/08/21 09:38:14;;;;;;;16.33;12.88;;;31.00;43.90;;;;;;4985528;28;114264;-78
2023/08/21 09:40:51;;;;;;;14.57;13.00;;;31.00;44.10;;;;;;4985755;28;114459;-78
2023/08/21 09:43:18;;;;;;;15.70;12.23;;;31.10;44.10;;;;;;4993894;28;114926;-78
2023/08/21 09:45:55;;;;;;;13.40;11.95;;;31.10;43.90;;;;;;4987348;28;114702;-79
2023/08/21 09:48:23;;;;;;;14.13;12.73;;;31.10;43.30;;;;;;5004565;28;114313;-79
2023/08/21 09:50:53;;;;;;;13.85;12.32;;;31.10;43.50;;;;;;5003875;28;114532;-79
2023/08/21 09:53:22;;;;;;;12.60;11.30;;;31.10;43.80;;;;;;4985238;28;115339;-78
2023/08/21 09:56:08;;;;;;;12.50;11.32;;;31.10;43.50;;;;;;4994331;28;114495;-79
2023/08/21 09:58:36;;;;;;;14.98;11.63;;;31.10;43.50;;;;;;4997944;28;114283;-78
2023/08/21 10:01:13;;;;;;;12.15;11.05;;;31.10;43.20;;;;;;5004641;28;114173;-78
2023/08/21 10:03:41;;;;;;;13.25;11.85;;;31.10;43.60;;;;;;5003201;28;115014;-78
2023/08/21 10:06:09;;;;;;;12.82;11.38;;;31.20;44.00;;;;;;4985942;28;114672;-78
2023/08/21 10:08:42;;;;;;;12.10;11.00;;;31.30;43.90;;;;;;4984671;28;114351;-79
2023/08/21 10:11:09;;;;;;;11.93;10.77;;;31.40;43.10;;;;;;4983371;28;114331;-77
2023/08/21 10:13:37;;;;;;;12.50;10.93;;;31.30;42.90;;;;;;4982521;28;114877;-79
2023/08/21 10:16:05;;;;;;;11.77;10.57;;;31.30;42.80;;;;;;4982315;28;115209;-78
2023/08/21 10:18:35;;;;;;;13.48;10.60;;;31.30;42.90;;;;;;4983197;28;114746;-78
2023/08/21 10:21:19;;;;;;;13.32;11.05;;;31.30;43.10;;;;;;4966531;28;114658;-80
2023/08/21 10:23:48;;;;;;;12.45;10.93;;;31.30;43.50;;;;;;4967145;28;117014;-78
2023/08/21 10:26:19;;;;;;;14.35;11.38;;;31.30;43.20;;;;;;4983975;28;115036;-79
2023/08/21 10:28:59;;;;;;;13.18;11.85;;;31.20;43.40;;;;;;4984446;28;114302;-80
2023/08/21 10:31:27;;;;;;;12.55;10.95;;;31.10;43.50;;;;;;4984761;28;114384;-80
2023/08/21 10:33:54;;;;;;;12.85;11.48;;;31.00;43.90;;;;;;4983816;28;114892;-80
2023/08/21 10:36:59;;;;;;;14.50;12.05;;;31.00;44.40;;;;;;4984855;28;115943;-77
2023/08/21 10:39:29;;;;;;;13.23;10.73;;;31.10;44.60;;;;;;4973327;28;114374;-79
2023/08/21 10:42:07;;;;;;;12.13;10.95;;;31.10;44.40;;;;;;4967680;28;114459;-78
2023/08/21 10:45:09;;;;;;;11.70;10.60;;;31.20;44.10;;;;;;4984550;28;114222;-79
2023/08/21 10:47:38;;;;;;;12.38;11.20;;;31.40;44.10;;;;;;4983417;28;114897;-79
2023/08/21 10:50:07;;;;;;;12.30;10.90;;;31.60;43.60;;;;;;4985304;28;114435;-79
2023/08/21 10:52:47;;;;;;;15.85;10.95;;;31.60;43.10;;;;;;4984307;28;114287;-79
2023/08/21 10:55:15;;;;;;;10.43;9.43;;;31.80;42.70;;;;;;4983416;28;115086;-79
2023/08/21 10:57:42;;;;;;;11.02;10.02;;;31.80;41.90;;;;;;4983033;28;115721;-78
2023/08/21 11:00:11;;;;;;;11.63;10.50;;;31.80;41.70;;;;;;4983665;28;114452;-78
2023/08/21 11:02:41;;;;;;;12.02;10.88;;;31.70;41.70;;;;;;4983855;28;114440;-79
2023/08/21 11:05:08;;;;;;;11.65;10.57;;;31.60;41.90;;;;;;4983036;28;115705;-79
2023/08/21 11:07:43;;;;;;;11.98;10.77;;;31.60;42.30;;;;;;4983779;28;114643;-79
2023/08/21 11:10:16;;;;;;;11.82;10.63;;;31.60;42.30;;;;;;4984615;28;114557;-78
2023/08/21 11:12:55;;;;;;;11.90;10.55;;;31.70;42.50;;;;;;4983911;28;114279;-78
2023/08/21 11:15:23;;;;;;;12.90;9.90;;;31.90;42.70;;;;;;4982492;28;115184;-79
2023/08/21 11:18:01;;;;;;;12.93;10.80;;;31.90;42.70;;;;;;4982177;28;114859;-78
2023/08/21 11:20:30;;;;;;;12.02;10.93;;;31.90;42.30;;;;;;4984725;28;114563;-79
2023/08/21 11:22:58;;;;;;;12.32;11.05;;;31.80;42.50;;;;;;4967323;28;114470;-79
2023/08/21 11:25:27;;;;;;;11.98;10.80;;;31.60;42.90;;;;;;4982874;28;114734;-78
2023/08/21 11:27:54;;;;;;;15.13;11.10;;;31.60;42.80;;;;;;4983107;28;114549;-77
2023/08/21 11:30:24;;;;;;;19.15;11.35;;;31.50;42.90;;;;;;4984868;28;114374;-79
2023/08/21 11:33:13;;;;;;;12.85;11.15;;;31.50;43.10;;;;;;4967540;28;114368;-79
2023/08/21 11:35:40;;;;;;;12.90;11.55;;;31.60;42.80;;;;;;4983112;28;114868;-79
2023/08/21 11:38:18;;;;;;;14.02;11.70;;;31.40;43.10;;;;;;5068108;27;114454;-79
2023/08/21 11:40:56;;;;;;;13.25;11.80;;;31.40;43.20;;;;;;5064428;27;114220;-78
2023/08/21 11:43:43;;;;;;;13.05;11.73;;;31.40;43.10;;;;;;5063189;27;114997;-80
2023/08/21 11:46:10;;;;;;;13.05;11.30;;;31.30;43.10;;;;;;5064338;27;114330;-78
2023/08/21 11:48:38;;;;;;;12.75;11.32;;;31.30;43.50;;;;;;5065429;27;114114;-79
2023/08/21 11:51:07;;;;;;;13.32;11.90;;;31.30;43.30;;;;;;5047022;27;114314;-79
2023/08/21 11:53:41;;;;;;;14.35;13.05;;;31.30;43.50;;;;;;5063152;27;114916;-78
2023/08/21 11:56:10;;;;;;;14.07;12.52;;;31.30;43.40;;;;;;5064048;27;114567;-77
2023/08/21 11:58:41;;;;;;;16.27;12.88;;;31.10;43.50;;;;;;5065026;27;114293;-79
2023/08/21 12:01:09;;;;;;;14.40;12.27;;;31.10;44.00;;;;;;5063743;27;114692;-78
2023/08/21 12:03:38;;;;;;;14.70;13.13;;;31.00;44.20;;;;;;5045954;27;114879;-79
2023/08/21 12:06:09;;;;;;;13.98;12.63;;;30.90;44.90;;;;;;5063922;27;114712;-80
2023/08/21 12:08:36;;;;;;;13.52;11.88;;;30.90;44.90;;;;;;5064149;27;114159;-79
2023/08/21 12:11:03;;;;;;;15.25;12.27;;;30.80;45.10;;;;;;5065157;27;114114;-80
2023/08/21 12:13:30;;;;;;;13.60;12.15;;;30.80;45.10;;;;;;5062915;27;115005;-79
2023/08/21 12:16:01;;;;;;;14.10;12.70;;;30.80;45.30;;;;;;5063893;27;114412;-80
2023/08/21 12:18:28;;;;;;;14.43;12.88;;;30.80;45.20;;;;;;5065219;27;114060;-79
2023/08/21 12:20:58;;;;;;;15.18;12.90;;;30.80;45.00;;;;;;5063477;27;114302;-79
2023/08/21 12:23:26;;;;;;;13.20;11.43;;;30.80;45.10;;;;;;5062352;27;115378;-80
2023/08/21 12:25:53;;;;;;;15.25;12.75;;;30.80;45.00;;;;;;5061988;27;116601;-79
2023/08/21 12:28:20;;;;;;;13.52;12.13;;;30.80;45.20;;;;;;5064344;27;114382;-78